Time;durP1;ratioP1;P1;durP2;ratioP2;P2;SDS_P1;SDS_P2;PMS_P1;PMS_P2;Temp;Humidity;BMP_temperature;BMP_pressure;BME280_temperature;BME280_humidity;BME280_pressure;Samples;Min_cycle;Max_cycle;Signal;HPM_P1;HPM_P2
2022/10/20 00:00:13;;;;;;;2.75;1.25;;;20.20;60.00;;;;;;4966838;29;20027;-68
2022/10/20 00:02:39;;;;;;;1.30;1.20;;;20.20;59.90;;;;;;4966874;28;20370;-68
2022/10/20 00:05:05;;;;;;;1.27;1.17;;;20.20;59.80;;;;;;4966847;29;20023;-67
2022/10/20 00:07:31;;;;;;;0.80;0.80;;;20.20;59.70;;;;;;4966823;28;20019;-67
2022/10/20 00:09:56;;;;;;;1.13;0.93;;;20.20;59.80;;;;;;4966714;29;20054;-67
2022/10/20 00:12:22;;;;;;;0.82;0.82;;;20.20;59.90;;;;;;4966693;29;20023;-67
2022/10/20 00:14:48;;;;;;;1.60;1.08;;;20.20;59.90;;;;;;4966679;29;20030;-67
2022/10/20 00:17:14;;;;;;;1.05;0.98;;;20.20;59.90;;;;;;4966642;29;20050;-67
2022/10/20 00:19:39;;;;;;;1.33;1.13;;;20.10;59.80;;;;;;4966490;29;20030;-68
2022/10/20 00:22:05;;;;;;;1.20;1.10;;;20.10;59.80;;;;;;4966536;29;20019;-68
2022/10/20 00:24:31;;;;;;;1.33;1.00;;;20.10;59.80;;;;;;4966448;29;20019;-67
2022/10/20 00:26:57;;;;;;;1.17;0.93;;;20.10;59.80;;;;;;4966448;29;20019;-68
2022/10/20 00:29:22;;;;;;;1.10;1.00;;;20.10;59.80;;;;;;4966423;29;20050;-67
2022/10/20 00:31:48;;;;;;;2.17;1.40;;;20.10;59.70;;;;;;4966335;29;20311;-67
2022/10/20 00:34:14;;;;;;;1.42;1.27;;;20.10;59.70;;;;;;4966321;29;20031;-68
2022/10/20 00:36:39;;;;;;;1.40;1.17;;;20.10;59.80;;;;;;4966097;29;20106;-68
2022/10/20 00:39:06;;;;;;;2.30;1.05;;;20.10;59.80;;;;;;4966159;28;20031;-67
2022/10/20 00:41:32;;;;;;;1.17;1.08;;;20.10;59.90;;;;;;4966164;29;20015;-69
2022/10/20 00:44:00;;;;;;;2.50;1.20;;;20.10;59.80;;;;;;4965880;28;20023;-67
2022/10/20 00:46:46;;;;;;;1.13;0.98;;;20.10;59.80;;;;;;4966106;29;20039;-67
2022/10/20 00:49:21;;;;;;;1.15;1.05;;;20.10;59.90;;;;;;4965935;28;20022;-67
2022/10/20 00:51:49;;;;;;;0.98;0.90;;;20.10;59.80;;;;;;4965994;29;20323;-67
2022/10/20 00:54:21;;;;;;;1.23;0.95;;;20.00;59.70;;;;;;4965968;29;20031;-68
2022/10/20 00:56:54;;;;;;;1.10;1.00;;;20.10;59.80;;;;;;4965945;29;20026;-68
2022/10/20 00:59:24;;;;;;;1.10;1.00;;;20.10;59.70;;;;;;4965779;29;20019;-67
2022/10/20 01:01:50;;;;;;;1.20;1.10;;;20.10;59.80;;;;;;4965805;29;20018;-67
2022/10/20 01:04:17;;;;;;;1.20;0.90;;;20.00;59.70;;;;;;4965846;28;20043;-67
2022/10/20 01:06:43;;;;;;;1.05;0.98;;;20.10;59.80;;;;;;4965746;29;20065;-68
2022/10/20 01:09:09;;;;;;;0.93;0.80;;;20.10;59.80;;;;;;4965709;29;20327;-67
2022/10/20 01:11:56;;;;;;;0.80;0.80;;;20.00;59.70;;;;;;4965688;29;20015;-68
2022/10/20 01:14:39;;;;;;;1.10;1.00;;;20.00;59.80;;;;;;4965712;28;20098;-67
2022/10/20 01:17:11;;;;;;;0.95;0.93;;;20.10;59.80;;;;;;4965654;29;20015;-67
2022/10/20 01:20:14;;;;;;;1.00;1.00;;;20.00;59.70;;;;;;4965503;29;20038;-67
2022/10/20 01:22:57;;;;;;;0.80;0.80;;;20.00;59.80;;;;;;4965571;29;20015;-67
2022/10/20 01:26:10;;;;;;;0.82;0.82;;;20.00;59.80;;;;;;4965525;29;20039;-68
2022/10/20 01:28:53;;;;;;;0.80;0.80;;;20.00;59.80;;;;;;4974901;28;20031;-67
2022/10/20 01:31:48;;;;;;;1.10;1.00;;;20.00;59.70;;;;;;4965464;29;20023;-68
2022/10/20 01:34:46;;;;;;;0.80;0.80;;;20.00;59.80;;;;;;4965298;28;20085;-68
2022/10/20 01:37:32;;;;;;;0.93;0.82;;;20.00;59.80;;;;;;4973865;28;20251;-68
2022/10/20 01:40:09;;;;;;;1.30;1.00;;;20.00;59.80;;;;;;4965271;29;20058;-67
2022/10/20 01:42:38;;;;;;;0.95;0.90;;;20.00;59.80;;;;;;4965356;29;20086;-68
2022/10/20 01:45:06;;;;;;;1.20;1.10;;;20.00;59.70;;;;;;4965269;29;20086;-67
2022/10/20 01:47:34;;;;;;;0.95;0.85;;;20.00;59.70;;;;;;4965239;28;20050;-68
2022/10/20 01:50:02;;;;;;;0.93;0.93;;;19.90;59.70;;;;;;4965232;29;20139;-68
2022/10/20 01:52:29;;;;;;;1.15;0.98;;;19.90;59.70;;;;;;4965217;29;20027;-68
2022/10/20 01:54:55;;;;;;;1.13;1.02;;;20.00;59.80;;;;;;4965708;28;20026;-67
2022/10/20 01:57:26;;;;;;;1.15;1.05;;;20.00;59.70;;;;;;4969185;29;20023;-67
2022/10/20 01:59:58;;;;;;;1.02;0.93;;;19.90;59.70;;;;;;4969042;29;20026;-66
2022/10/20 02:02:53;;;;;;;2.42;0.93;;;19.90;59.70;;;;;;4969103;29;20015;-68
2022/10/20 02:05:50;;;;;;;1.02;0.85;;;19.90;59.70;;;;;;4969103;29;20078;-68
2022/10/20 02:08:29;;;;;;;1.23;1.13;;;19.90;59.80;;;;;;4968975;29;20025;-68
2022/10/20 02:11:01;;;;;;;0.82;0.82;;;19.90;59.70;;;;;;4968980;28;20031;-67
2022/10/20 02:13:29;;;;;;;0.95;0.85;;;19.90;59.80;;;;;;4968915;29;20050;-67
2022/10/20 02:15:59;;;;;;;1.55;0.90;;;19.90;59.80;;;;;;4968859;29;20019;-67
2022/10/20 02:18:33;;;;;;;1.08;1.05;;;19.90;59.50;;;;;;4968805;29;20027;-68
2022/10/20 02:21:01;;;;;;;1.13;1.02;;;19.90;59.60;;;;;;4968686;29;20023;-67
2022/10/20 02:23:30;;;;;;;0.82;0.82;;;19.90;59.70;;;;;;4968738;29;20091;-67
2022/10/20 02:25:57;;;;;;;1.10;0.95;;;19.90;59.70;;;;;;4968649;29;20034;-67
2022/10/20 02:28:25;;;;;;;1.20;1.10;;;19.90;59.70;;;;;;4968664;28;20083;-68
2022/10/20 02:30:51;;;;;;;1.10;1.00;;;19.90;59.50;;;;;;4968584;29;20022;-67
2022/10/20 02:33:18;;;;;;;0.95;0.95;;;19.80;59.70;;;;;;4968506;29;20211;-67
2022/10/20 02:35:52;;;;;;;0.90;0.90;;;19.90;59.80;;;;;;4968351;29;20023;-66
2022/10/20 02:38:18;;;;;;;0.70;0.70;;;19.80;59.60;;;;;;4967347;29;20226;-67
2022/10/20 02:40:45;;;;;;;1.13;1.02;;;19.80;59.80;;;;;;4967199;28;20370;-67
2022/10/20 02:43:11;;;;;;;1.10;1.00;;;19.80;59.80;;;;;;4968336;29;20023;-67
2022/10/20 02:45:36;;;;;;;1.65;1.13;;;19.80;59.60;;;;;;4968290;29;20019;-66
2022/10/20 02:48:02;;;;;;;0.95;0.95;;;19.80;59.70;;;;;;4968261;29;20327;-67
2022/10/20 02:50:28;;;;;;;1.15;1.05;;;19.80;59.70;;;;;;4968216;29;20215;-69
2022/10/20 02:52:54;;;;;;;1.08;0.98;;;19.80;59.60;;;;;;4968164;29;20038;-69
2022/10/20 02:55:20;;;;;;;1.10;1.00;;;19.80;59.70;;;;;;4968097;29;20015;-67
2022/10/20 02:57:45;;;;;;;1.27;1.17;;;19.80;59.60;;;;;;4968078;28;20029;-67
2022/10/20 03:00:12;;;;;;;1.73;1.23;;;19.80;59.50;;;;;;4967989;29;20023;-67
2022/10/20 03:02:38;;;;;;;1.13;1.02;;;19.80;59.70;;;;;;4967994;29;20020;-67
2022/10/20 03:05:04;;;;;;;0.82;0.82;;;19.80;59.70;;;;;;4967953;28;20058;-68
2022/10/20 03:07:30;;;;;;;1.08;0.82;;;19.80;59.70;;;;;;4967828;28;20030;-66
2022/10/20 03:09:56;;;;;;;1.25;1.15;;;19.80;59.40;;;;;;4967919;28;20047;-68
2022/10/20 03:12:21;;;;;;;1.00;0.90;;;19.80;59.70;;;;;;4967860;29;20244;-67
2022/10/20 03:14:48;;;;;;;1.10;1.00;;;19.80;59.60;;;;;;4967811;29;20026;-68
2022/10/20 03:17:13;;;;;;;1.20;1.10;;;19.80;59.60;;;;;;4967755;28;20196;-68
2022/10/20 03:19:40;;;;;;;2.55;1.00;;;19.70;59.50;;;;;;4967698;28;20050;-67
2022/10/20 03:22:06;;;;;;;0.80;0.80;;;19.70;59.50;;;;;;4967677;28;20015;-68
2022/10/20 03:24:31;;;;;;;0.93;0.90;;;19.70;59.60;;;;;;4967611;29;20015;-68
2022/10/20 03:26:57;;;;;;;1.30;1.00;;;19.70;59.50;;;;;;4967577;29;20050;-68
2022/10/20 03:29:23;;;;;;;1.27;1.17;;;19.70;59.60;;;;;;4967488;29;20029;-68
2022/10/20 03:31:49;;;;;;;1.50;1.20;;;19.80;59.60;;;;;;4967503;29;20023;-67
2022/10/20 03:34:14;;;;;;;1.00;0.90;;;19.70;59.60;;;;;;4967420;29;20022;-68
2022/10/20 03:36:40;;;;;;;1.10;1.00;;;19.70;59.60;;;;;;4967277;28;20047;-67
2022/10/20 03:39:06;;;;;;;0.80;0.80;;;19.70;59.60;;;;;;4967283;29;20023;-67
2022/10/20 03:41:35;;;;;;;1.00;0.90;;;19.70;59.70;;;;;;4967280;29;20034;-67
2022/10/20 03:44:01;;;;;;;1.13;1.05;;;19.70;59.60;;;;;;4967249;29;20041;-67
2022/10/20 03:46:26;;;;;;;1.05;0.95;;;19.70;59.70;;;;;;4967258;28;20235;-67
2022/10/20 03:48:52;;;;;;;1.10;0.98;;;19.70;59.50;;;;;;4967151;29;20211;-67
2022/10/20 03:51:18;;;;;;;1.40;1.27;;;19.70;59.70;;;;;;4967123;29;20027;-67
2022/10/20 03:53:44;;;;;;;1.27;0.95;;;19.70;59.70;;;;;;4967103;29;20027;-68
2022/10/20 03:56:14;;;;;;;0.88;0.88;;;19.70;59.70;;;;;;4967002;29;20034;-68
2022/10/20 03:58:40;;;;;;;0.90;0.90;;;19.70;59.60;;;;;;4967025;29;20086;-67
2022/10/20 04:01:08;;;;;;;0.82;0.80;;;19.60;59.70;;;;;;4966890;29;20019;-67
2022/10/20 04:03:33;;;;;;;1.20;1.00;;;19.60;59.50;;;;;;4966939;28;20023;-67
2022/10/20 04:05:59;;;;;;;1.00;1.00;;;19.60;59.60;;;;;;4966864;29;20030;-68
2022/10/20 04:08:25;;;;;;;1.17;0.90;;;19.60;59.60;;;;;;4966824;29;20023;-67
2022/10/20 04:10:51;;;;;;;0.98;0.90;;;19.60;59.50;;;;;;4966786;28;20215;-68
2022/10/20 04:13:16;;;;;;;0.90;0.88;;;19.60;59.60;;;;;;4966700;29;20038;-67
2022/10/20 04:15:42;;;;;;;1.00;1.00;;;19.60;59.60;;;;;;4966668;29;20023;-67
2022/10/20 04:18:08;;;;;;;1.33;1.02;;;19.60;59.60;;;;;;4966096;28;20281;-67
2022/10/20 04:20:37;;;;;;;0.70;0.70;;;19.60;60.30;;;;;;4981504;28;20027;-67
2022/10/20 04:23:03;;;;;;;1.30;1.00;;;19.60;59.60;;;;;;4966529;29;20105;-67
2022/10/20 04:25:28;;;;;;;1.00;1.00;;;19.60;59.60;;;;;;4966763;28;20306;-68
2022/10/20 04:27:54;;;;;;;1.98;1.25;;;19.60;59.60;;;;;;4966437;29;20307;-67
2022/10/20 04:30:20;;;;;;;1.20;1.10;;;19.60;59.60;;;;;;4966386;29;20027;-67
2022/10/20 04:32:46;;;;;;;0.82;0.82;;;19.60;59.60;;;;;;4966385;29;20311;-68
2022/10/20 04:35:11;;;;;;;0.90;0.90;;;19.60;59.60;;;;;;4966318;29;20441;-67
2022/10/20 04:37:37;;;;;;;1.20;0.93;;;19.60;59.50;;;;;;4966149;29;20055;-68
2022/10/20 04:40:03;;;;;;;0.93;0.90;;;19.60;59.70;;;;;;4966153;28;20035;-67
2022/10/20 04:42:29;;;;;;;1.00;0.88;;;19.60;59.60;;;;;;4966201;29;20030;-67
2022/10/20 04:44:55;;;;;;;1.42;0.95;;;19.60;59.60;;;;;;4966136;29;20011;-67
2022/10/20 04:47:20;;;;;;;1.33;1.10;;;19.60;59.60;;;;;;4966106;28;20027;-68
2022/10/20 04:49:46;;;;;;;1.17;1.08;;;19.60;59.70;;;;;;4966068;29;20023;-67
2022/10/20 04:52:12;;;;;;;0.95;0.95;;;19.60;59.60;;;;;;4966000;29;20031;-67
2022/10/20 04:54:38;;;;;;;1.00;0.90;;;19.60;59.60;;;;;;4965989;29;20039;-67
2022/10/20 04:57:05;;;;;;;0.80;0.80;;;19.50;59.70;;;;;;4965925;29;20023;-68
2022/10/20 04:59:31;;;;;;;1.48;0.90;;;19.50;59.60;;;;;;4965871;28;20019;-67
2022/10/20 05:01:56;;;;;;;1.05;0.90;;;19.50;59.50;;;;;;4965868;29;20023;-68
2022/10/20 05:04:22;;;;;;;1.20;1.10;;;19.50;59.60;;;;;;4965882;28;20301;-67
2022/10/20 05:06:48;;;;;;;1.17;1.08;;;19.50;59.50;;;;;;4965829;28;20023;-67
2022/10/20 05:09:15;;;;;;;0.93;0.88;;;19.50;59.60;;;;;;4965755;29;20023;-67
2022/10/20 05:11:41;;;;;;;1.20;1.05;;;19.50;59.60;;;;;;4965689;29;20035;-67
2022/10/20 05:14:07;;;;;;;0.95;0.95;;;19.50;59.60;;;;;;4965666;28;20019;-68
2022/10/20 05:16:33;;;;;;;1.13;1.00;;;19.50;59.60;;;;;;4965630;29;20031;-67
2022/10/20 05:18:59;;;;;;;0.90;0.80;;;19.50;59.60;;;;;;4965629;28;20078;-67
2022/10/20 05:21:27;;;;;;;1.27;1.10;;;19.50;59.70;;;;;;4965500;29;20027;-67
2022/10/20 05:23:58;;;;;;;0.95;0.80;;;19.50;59.60;;;;;;4965559;29;20016;-67
2022/10/20 05:26:26;;;;;;;1.45;1.10;;;19.50;59.50;;;;;;4965471;29;20047;-67
2022/10/20 05:28:52;;;;;;;0.95;0.90;;;19.50;59.50;;;;;;4965374;28;20019;-68
2022/10/20 05:31:21;;;;;;;1.17;1.00;;;19.50;59.40;;;;;;4964784;29;20215;-67
2022/10/20 05:33:48;;;;;;;;;;;19.50;59.50;;;;;;4965822;29;20019;-66
2022/10/20 05:36:17;;;;;;;0.90;0.75;;;19.50;59.50;;;;;;4965287;28;20129;-66
2022/10/20 05:38:42;;;;;;;1.20;1.10;;;19.50;59.50;;;;;;4965365;28;20027;-68
2022/10/20 05:41:17;;;;;;;2.60;1.10;;;19.50;59.40;;;;;;4965285;28;20037;-67
2022/10/20 05:43:48;;;;;;;1.50;0.95;;;19.50;59.50;;;;;;4965331;29;20234;-68
2022/10/20 05:46:13;;;;;;;1.27;1.17;;;19.50;59.40;;;;;;4965289;28;20019;-67
2022/10/20 05:48:39;;;;;;;1.15;1.05;;;19.50;59.40;;;;;;4965261;29;20188;-67
2022/10/20 05:51:08;;;;;;;1.10;1.00;;;19.50;59.40;;;;;;4965257;29;20049;-68
2022/10/20 05:53:33;;;;;;;;;;;19.40;59.40;;;;;;4965664;29;20023;-68
2022/10/20 05:56:07;;;;;;;1.52;1.00;;;19.50;59.60;;;;;;4965254;28;20110;-67
2022/10/20 05:58:33;;;;;;;1.00;0.88;;;19.50;59.60;;;;;;4965151;29;20303;-67
2022/10/20 06:01:08;;;;;;;1.02;0.90;;;19.50;59.50;;;;;;4965069;29;20090;-67
2022/10/20 06:03:34;;;;;;;1.25;1.10;;;19.40;59.50;;;;;;4965118;28;20015;-67
2022/10/20 06:06:00;;;;;;;0.73;0.73;;;19.40;59.50;;;;;;4965082;29;20023;-68
2022/10/20 06:08:33;;;;;;;1.00;0.95;;;19.50;59.50;;;;;;4980036;28;20022;-68
2022/10/20 06:11:07;;;;;;;1.00;0.90;;;19.50;59.60;;;;;;4965034;29;20027;-67
2022/10/20 06:13:33;;;;;;;0.90;0.90;;;19.40;59.40;;;;;;4965072;29;20019;-68
2022/10/20 06:16:04;;;;;;;1.27;0.85;;;19.40;59.50;;;;;;4965018;29;20019;-67
2022/10/20 06:18:31;;;;;;;0.73;0.73;;;19.40;59.40;;;;;;4964985;29;20342;-67
2022/10/20 06:21:05;;;;;;;0.80;0.80;;;19.40;59.50;;;;;;4964909;29;20066;-67
2022/10/20 06:23:31;;;;;;;1.23;1.10;;;19.40;59.40;;;;;;4964981;29;20211;-67
2022/10/20 06:26:22;;;;;;;1.92;1.25;;;19.40;59.10;;;;;;4964915;29;20019;-67
2022/10/20 06:28:52;;;;;;;1.02;0.90;;;19.40;59.40;;;;;;4965000;28;20030;-68
2022/10/20 06:31:27;;;;;;;1.10;1.00;;;19.40;59.40;;;;;;4964917;29;20346;-67
2022/10/20 06:33:53;;;;;;;1.70;1.17;;;19.40;59.20;;;;;;4963688;29;20023;-67
2022/10/20 06:36:21;;;;;;;0.98;0.90;;;19.40;59.40;;;;;;4964662;29;20055;-68
2022/10/20 06:38:47;;;;;;;0.70;0.70;;;19.40;59.40;;;;;;4979755;28;20090;-66
2022/10/20 06:41:15;;;;;;;0.80;0.77;;;19.40;59.50;;;;;;4965645;28;20074;-67
2022/10/20 06:43:45;;;;;;;1.05;0.93;;;19.40;59.40;;;;;;4968388;29;20016;-68
2022/10/20 06:46:13;;;;;;;0.93;0.90;;;19.40;59.40;;;;;;4983271;28;20069;-67
2022/10/20 06:48:39;;;;;;;1.10;0.88;;;19.40;59.40;;;;;;4968308;29;20023;-67
2022/10/20 06:51:13;;;;;;;0.90;0.80;;;19.50;59.50;;;;;;4968321;29;20262;-68
2022/10/20 06:53:41;;;;;;;0.80;0.80;;;19.40;59.40;;;;;;4968277;29;20026;-68
2022/10/20 06:56:12;;;;;;;1.30;0.98;;;19.40;59.40;;;;;;4968193;28;20358;-68
2022/10/20 06:58:40;;;;;;;1.25;0.88;;;19.50;59.40;;;;;;4968181;28;20019;-68
2022/10/20 07:01:22;;;;;;;1.60;1.20;;;19.40;59.40;;;;;;4968050;28;20066;-68
2022/10/20 07:03:54;;;;;;;1.27;1.17;;;19.50;59.50;;;;;;4968074;29;20035;-67
2022/10/20 07:06:29;;;;;;;0.90;0.90;;;19.40;59.60;;;;;;4968006;29;20088;-67
2022/10/20 07:08:55;;;;;;;1.08;0.95;;;19.40;59.50;;;;;;4967876;28;20092;-67
2022/10/20 07:11:24;;;;;;;0.93;0.85;;;19.40;59.50;;;;;;4967817;29;20066;-67
2022/10/20 07:13:50;;;;;;;1.08;0.80;;;19.50;59.50;;;;;;4967881;29;20030;-68
2022/10/20 07:16:19;;;;;;;1.30;1.20;;;19.40;59.40;;;;;;4967846;28;20030;-67
2022/10/20 07:18:45;;;;;;;1.40;1.30;;;19.40;59.30;;;;;;4967804;28;20050;-68
2022/10/20 07:21:13;;;;;;;1.10;1.00;;;19.40;59.40;;;;;;4967650;29;20043;-67
2022/10/20 07:23:39;;;;;;;0.82;0.77;;;19.50;59.40;;;;;;4967712;29;20019;-67
2022/10/20 07:26:07;;;;;;;0.90;0.90;;;19.50;59.80;;;;;;4967618;29;20019;-67
2022/10/20 07:28:34;;;;;;;1.10;1.00;;;19.50;59.20;;;;;;4967592;29;20214;-67
2022/10/20 07:31:05;;;;;;;1.27;0.90;;;19.60;59.10;;;;;;4967518;29;20027;-67
2022/10/20 07:33:31;;;;;;;1.02;0.95;;;19.60;59.10;;;;;;4967551;28;20027;-67
2022/10/20 07:35:57;;;;;;;0.93;0.80;;;19.50;59.40;;;;;;4966134;29;20043;-67
2022/10/20 07:38:23;;;;;;;1.08;0.98;;;19.50;60.00;;;;;;4967448;28;20038;-68
2022/10/20 07:40:49;;;;;;;1.20;1.00;;;19.50;59.60;;;;;;4967319;28;20211;-67
2022/10/20 07:43:15;;;;;;;1.10;0.70;;;19.40;59.70;;;;;;4967302;29;20082;-68
2022/10/20 07:45:41;;;;;;;1.67;1.13;;;19.40;59.80;;;;;;4967241;29;20030;-67
2022/10/20 07:48:08;;;;;;;0.77;0.77;;;19.40;59.80;;;;;;4967249;29;20046;-67
2022/10/20 07:50:35;;;;;;;1.20;1.10;;;19.40;60.40;;;;;;4967224;28;20016;-67
2022/10/20 07:53:02;;;;;;;1.35;1.10;;;19.30;59.80;;;;;;4966223;28;20022;-67
2022/10/20 07:55:28;;;;;;;1.00;0.90;;;19.40;59.80;;;;;;4967103;29;20103;-68
2022/10/20 07:57:53;;;;;;;1.13;0.80;;;19.40;59.70;;;;;;4967097;28;20050;-67
2022/10/20 08:00:19;;;;;;;0.80;0.80;;;19.40;59.70;;;;;;4966995;28;20387;-67
2022/10/20 08:02:45;;;;;;;1.27;1.17;;;19.40;59.90;;;;;;4966987;29;20078;-68
2022/10/20 08:05:12;;;;;;;1.20;1.02;;;19.40;59.80;;;;;;4966965;28;20022;-67
2022/10/20 08:07:38;;;;;;;0.88;0.70;;;19.40;59.80;;;;;;4966906;28;20047;-67
2022/10/20 08:10:05;;;;;;;1.40;0.95;;;19.40;60.00;;;;;;4966834;29;20023;-68
2022/10/20 08:12:31;;;;;;;0.90;0.90;;;19.40;60.00;;;;;;4966764;29;20049;-67
2022/10/20 08:14:57;;;;;;;1.40;1.02;;;19.40;59.90;;;;;;4966723;29;20019;-68
2022/10/20 08:17:23;;;;;;;1.10;1.00;;;19.40;59.90;;;;;;4966662;29;20118;-67
2022/10/20 08:19:48;;;;;;;1.15;0.98;;;19.40;59.60;;;;;;4966575;29;20025;-68
2022/10/20 08:22:17;;;;;;;1.23;1.10;;;19.40;59.90;;;;;;4966583;29;20024;-67
2022/10/20 08:24:43;;;;;;;1.33;0.93;;;19.40;59.80;;;;;;4966544;29;20018;-68
2022/10/20 08:27:09;;;;;;;0.82;0.82;;;19.50;59.50;;;;;;4966510;29;20019;-67
2022/10/20 08:29:35;;;;;;;1.52;1.02;;;19.50;59.70;;;;;;4966483;29;20042;-68
2022/10/20 08:32:01;;;;;;;0.80;0.80;;;19.50;59.50;;;;;;4966432;29;20362;-67
2022/10/20 08:34:27;;;;;;;1.02;1.02;;;19.50;59.60;;;;;;4966367;29;20023;-67
2022/10/20 08:36:53;;;;;;;1.05;0.95;;;19.50;59.60;;;;;;4966097;29;20055;-67
2022/10/20 08:39:19;;;;;;;1.85;1.27;;;19.50;59.60;;;;;;4966186;29;20030;-68
2022/10/20 08:41:47;;;;;;;1.08;0.98;;;19.50;59.60;;;;;;4966262;29;20043;-67
2022/10/20 08:44:25;;;;;;;0.93;0.85;;;19.50;59.60;;;;;;4966225;28;20078;-67
2022/10/20 08:46:51;;;;;;;1.10;0.98;;;19.50;59.60;;;;;;4966216;28;20019;-67
2022/10/20 08:49:27;;;;;;;1.02;0.98;;;19.50;59.60;;;;;;4966157;28;20023;-67
2022/10/20 08:51:54;;;;;;;1.15;0.95;;;19.50;59.60;;;;;;4966108;29;20019;-68
2022/10/20 08:54:20;;;;;;;1.15;1.05;;;19.60;59.60;;;;;;4966032;29;20026;-68
2022/10/20 08:56:46;;;;;;;0.93;0.93;;;19.60;59.60;;;;;;4966022;28;20023;-67
2022/10/20 08:59:25;;;;;;;0.90;0.90;;;19.60;59.60;;;;;;4965964;28;20295;-66
2022/10/20 09:01:52;;;;;;;1.38;0.93;;;19.60;59.50;;;;;;4965910;29;20027;-68
2022/10/20 09:04:25;;;;;;;0.80;0.80;;;19.60;59.50;;;;;;4965728;28;20071;-68
2022/10/20 09:07:01;;;;;;;1.08;0.88;;;19.60;59.60;;;;;;4965825;29;20374;-68
2022/10/20 09:09:30;;;;;;;0.80;0.80;;;19.60;59.50;;;;;;4965846;29;20015;-67
2022/10/20 09:12:06;;;;;;;0.80;0.80;;;19.60;59.50;;;;;;4965772;29;20019;-67
2022/10/20 09:14:35;;;;;;;1.58;0.93;;;19.60;59.50;;;;;;4965752;29;20361;-68
2022/10/20 09:17:01;;;;;;;0.70;0.70;;;19.70;60.10;;;;;;4965659;29;20019;-68
2022/10/20 09:19:28;;;;;;;0.98;0.80;;;19.70;59.40;;;;;;4965564;28;20046;-67
2022/10/20 09:22:01;;;;;;;1.55;1.17;;;19.70;60.00;;;;;;4965627;29;20019;-67
2022/10/20 09:24:29;;;;;;;0.90;0.90;;;19.70;59.40;;;;;;4965570;29;20015;-67
2022/10/20 09:26:56;;;;;;;0.88;0.82;;;19.70;59.30;;;;;;4965584;29;20189;-67
2022/10/20 09:29:35;;;;;;;2.00;1.00;;;19.70;59.30;;;;;;4965486;29;20020;-68
2022/10/20 09:32:01;;;;;;;0.80;0.80;;;19.70;59.30;;;;;;4965482;29;20022;-68
2022/10/20 09:34:32;;;;;;;1.10;1.00;;;19.70;59.30;;;;;;4965442;29;20027;-67
2022/10/20 09:37:00;;;;;;;0.90;0.85;;;19.80;59.30;;;;;;4965267;29;20235;-67
2022/10/20 09:39:30;;;;;;;1.00;1.00;;;19.80;59.30;;;;;;4965266;29;20311;-67
2022/10/20 09:42:06;;;;;;;0.80;0.80;;;19.80;59.30;;;;;;4965361;29;20030;-68
2022/10/20 09:44:43;;;;;;;0.95;0.95;;;19.80;59.30;;;;;;4965353;29;20022;-67
2022/10/20 09:47:13;;;;;;;0.98;0.93;;;19.80;59.30;;;;;;4965334;29;20023;-68
2022/10/20 09:49:40;;;;;;;1.38;1.05;;;19.80;59.30;;;;;;4965552;29;20019;-68
2022/10/20 09:52:29;;;;;;;1.02;1.00;;;19.80;59.30;;;;;;4965268;29;20023;-69
2022/10/20 09:55:03;;;;;;;0.77;0.75;;;19.80;59.30;;;;;;4965187;29;20026;-67
2022/10/20 09:57:30;;;;;;;0.85;0.85;;;19.80;59.30;;;;;;4965168;29;20023;-67
2022/10/20 09:59:57;;;;;;;1.35;0.95;;;19.80;59.30;;;;;;4965083;29;20023;-68
2022/10/20 10:02:23;;;;;;;1.38;1.27;;;19.80;59.30;;;;;;4965160;29;20023;-67
2022/10/20 10:04:51;;;;;;;1.52;1.02;;;19.80;59.30;;;;;;4965095;29;20019;-68
2022/10/20 10:07:25;;;;;;;0.95;0.90;;;19.80;59.30;;;;;;4965123;29;20019;-68
2022/10/20 10:09:57;;;;;;;0.90;0.88;;;19.80;59.30;;;;;;4965076;29;20086;-68
2022/10/20 10:12:26;;;;;;;1.20;1.00;;;19.80;59.30;;;;;;4965067;29;20034;-67
2022/10/20 10:14:57;;;;;;;;;;;19.90;59.30;;;;;;4965462;29;20046;-68
2022/10/20 10:17:33;;;;;;;0.75;0.75;;;19.90;59.20;;;;;;4967891;28;19937;-67
2022/10/20 10:20:00;;;;;;;1.27;0.90;;;19.90;59.30;;;;;;4968797;29;20025;-68
2022/10/20 10:22:27;;;;;;;2.63;0.95;;;19.90;59.30;;;;;;4968802;29;20023;-67
2022/10/20 10:24:54;;;;;;;0.82;0.70;;;19.90;59.30;;;;;;4968726;29;20023;-67
2022/10/20 10:27:33;;;;;;;1.00;0.90;;;19.90;59.30;;;;;;4968702;29;20078;-67
2022/10/20 10:30:17;;;;;;;;;;;19.90;59.30;;;;;;4969075;29;20311;-68
2022/10/20 10:32:44;;;;;;;1.25;0.90;;;19.90;59.30;;;;;;4968552;28;19907;-68
2022/10/20 10:35:26;;;;;;;1.20;1.10;;;19.90;59.40;;;;;;4968621;29;20334;-68
2022/10/20 10:37:52;;;;;;;0.90;0.70;;;19.90;59.30;;;;;;4968487;28;20047;-68
2022/10/20 10:40:20;;;;;;;0.90;0.88;;;19.90;59.30;;;;;;4968400;29;20024;-68
2022/10/20 10:43:07;;;;;;;1.10;0.98;;;19.90;59.30;;;;;;4968436;29;20019;-68
2022/10/20 10:45:51;;;;;;;0.98;0.95;;;19.90;59.30;;;;;;4968032;28;20019;-68
2022/10/20 10:48:47;;;;;;;0.85;0.80;;;19.90;59.30;;;;;;4968384;29;20195;-68
2022/10/20 10:51:16;;;;;;;0.75;0.75;;;19.90;59.30;;;;;;4968354;29;20022;-68
2022/10/20 10:54:07;;;;;;;1.10;1.00;;;19.90;59.30;;;;;;4968232;28;20023;-67
2022/10/20 10:56:41;;;;;;;1.85;0.65;;;19.90;59.30;;;;;;4968228;29;20019;-67
2022/10/20 10:59:19;;;;;;;0.85;0.85;;;20.00;59.30;;;;;;4968185;29;20042;-68
2022/10/20 11:02:09;;;;;;;0.95;0.90;;;20.00;59.30;;;;;;4968184;29;20066;-67
2022/10/20 11:05:12;;;;;;;0.80;0.80;;;20.00;59.30;;;;;;4968078;29;20019;-68
2022/10/20 11:07:38;;;;;;;0.77;0.75;;;20.00;59.30;;;;;;4968011;28;20203;-68
2022/10/20 11:10:16;;;;;;;1.35;1.00;;;20.00;59.30;;;;;;4967923;29;20047;-67
2022/10/20 11:13:12;;;;;;;0.90;0.90;;;20.00;59.20;;;;;;4967940;28;20203;-67
2022/10/20 11:15:43;;;;;;;1.20;1.08;;;20.00;59.20;;;;;;4967911;28;20066;-68
2022/10/20 11:18:32;;;;;;;0.82;0.77;;;20.00;59.30;;;;;;4967848;29;20089;-67
2022/10/20 11:21:24;;;;;;;1.13;1.10;;;20.00;59.20;;;;;;4967759;28;20042;-68
2022/10/20 11:23:59;;;;;;;1.10;1.00;;;20.00;59.20;;;;;;4967725;29;20015;-68
2022/10/20 11:26:31;;;;;;;0.80;0.80;;;20.00;59.20;;;;;;4967738;28;20026;-67
2022/10/20 11:28:59;;;;;;;0.90;0.90;;;20.10;59.30;;;;;;4966314;28;20019;-68
2022/10/20 11:31:33;;;;;;;1.08;1.00;;;20.10;59.30;;;;;;4967596;29;20034;-67
2022/10/20 11:34:51;;;;;;;1.35;1.25;;;20.10;59.20;;;;;;4967579;29;20339;-67
2022/10/20 11:37:26;;;;;;;0.95;0.88;;;20.10;59.20;;;;;;4966284;28;20061;-69
2022/10/20 11:40:17;;;;;;;0.63;0.63;;;20.10;59.20;;;;;;4967377;29;20038;-67
2022/10/20 11:43:05;;;;;;;0.70;0.70;;;20.10;59.20;;;;;;4967261;28;20026;-67
2022/10/20 11:45:38;;;;;;;1.17;1.08;;;20.10;59.20;;;;;;4967336;29;20024;-67
2022/10/20 11:48:21;;;;;;;0.80;0.80;;;20.10;59.20;;;;;;4967260;29;20025;-68
2022/10/20 11:50:59;;;;;;;0.60;0.60;;;20.10;59.20;;;;;;4967258;29;20023;-67
2022/10/20 11:53:44;;;;;;;0.98;0.90;;;20.10;59.20;;;;;;4967191;29;20019;-67
2022/10/20 11:56:35;;;;;;;1.33;0.88;;;20.10;59.20;;;;;;4967180;29;20027;-68
2022/10/20 11:59:15;;;;;;;0.95;0.85;;;20.20;59.20;;;;;;4967033;29;20027;-67
2022/10/20 12:01:56;;;;;;;1.10;0.93;;;20.20;59.20;;;;;;4967005;29;20027;-67
2022/10/20 12:04:55;;;;;;;0.60;0.60;;;20.20;59.30;;;;;;4967052;28;20019;-68
2022/10/20 12:07:32;;;;;;;0.88;0.88;;;20.20;59.20;;;;;;4966957;29;20030;-67
2022/10/20 12:10:11;;;;;;;0.82;0.70;;;20.20;59.20;;;;;;4966888;29;20023;-67
2022/10/20 12:12:55;;;;;;;0.80;0.80;;;20.20;59.20;;;;;;4966797;29;20026;-68
2022/10/20 12:15:29;;;;;;;2.15;0.80;;;20.20;59.10;;;;;;4966777;29;20027;-68
2022/10/20 12:18:04;;;;;;;0.85;0.82;;;20.20;59.10;;;;;;4966737;29;20087;-67
2022/10/20 12:20:30;;;;;;;0.63;0.63;;;20.20;59.20;;;;;;4966659;28;20215;-68
2022/10/20 12:23:01;;;;;;;0.75;0.75;;;20.20;59.10;;;;;;4966659;28;20019;-68
2022/10/20 12:25:29;;;;;;;0.70;0.70;;;20.30;59.20;;;;;;4966647;29;20086;-67
2022/10/20 12:28:13;;;;;;;;;;;20.30;59.10;;;;;;4966991;29;20016;-67
2022/10/20 12:30:43;;;;;;;1.15;1.05;;;20.30;59.10;;;;;;4966503;28;19903;-67
2022/10/20 12:33:15;;;;;;;0.80;0.80;;;20.30;59.10;;;;;;4966461;29;20030;-67
2022/10/20 12:36:04;;;;;;;1.20;1.10;;;20.30;59.00;;;;;;4966457;28;20062;-68
2022/10/20 12:38:31;;;;;;;0.70;0.70;;;20.40;59.00;;;;;;4966057;28;20035;-67
2022/10/20 12:40:59;;;;;;;0.80;0.80;;;20.40;58.90;;;;;;4966136;29;20030;-67
2022/10/20 12:43:47;;;;;;;0.90;0.90;;;20.40;58.70;;;;;;4966251;29;20023;-68
2022/10/20 12:46:20;;;;;;;0.75;0.75;;;20.50;58.60;;;;;;4966213;28;20022;-68
2022/10/20 12:48:48;;;;;;;0.75;0.75;;;20.60;58.40;;;;;;4966184;29;20026;-69
2022/10/20 12:51:23;;;;;;;0.80;0.80;;;20.70;58.20;;;;;;4966117;29;20015;-67
2022/10/20 12:53:56;;;;;;;1.02;0.85;;;20.80;57.90;;;;;;4966075;29;20027;-68
2022/10/20 12:56:24;;;;;;;0.73;0.73;;;20.90;57.70;;;;;;4966057;28;20020;-68
2022/10/20 12:59:20;;;;;;;0.87;0.87;;;21.00;57.60;;;;;;4966007;29;20070;-68
2022/10/20 13:02:08;;;;;;;0.95;0.95;;;21.10;57.20;;;;;;4965828;29;20041;-68
2022/10/20 13:04:57;;;;;;;0.60;0.60;;;21.20;56.90;;;;;;4965972;28;20203;-68
2022/10/20 13:07:47;;;;;;;0.90;0.90;;;21.30;56.70;;;;;;4965813;29;20023;-68